createdAt,value
2023-06-10T00:00:19.519Z,36.333333
2023-06-10T00:05:21.488Z,36.666667
2023-06-10T00:10:24.136Z,36.285714
2023-06-10T00:15:26.776Z,34.666667
2023-06-10T00:20:28.839Z,32.933333
2023-06-10T00:25:31.478Z,32.333333
2023-06-10T00:30:34.463Z,32.000000
2023-06-10T00:35:16.590Z,32.000000
2023-06-10T00:40:18.964Z,31.133333
2023-06-10T00:45:21.289Z,32.000000
2023-06-10T00:50:23.733Z,34.357143
2023-06-10T00:55:26.192Z,35.800000
2023-06-10T01:00:28.604Z,35.200000
2023-06-10T01:05:31.603Z,35.333333
2023-06-10T01:10:35.246Z,33.866667
2023-06-10T01:15:16.025Z,35.666667
2023-06-10T01:20:18.749Z,37.133333
2023-06-10T01:25:20.769Z,37.733333
2023-06-10T01:30:22.778Z,37.857143
2023-06-10T01:35:25.842Z,37.266667
2023-06-10T01:40:28.564Z,37.666667
2023-06-10T01:45:30.907Z,37.666667
2023-06-10T01:50:33.463Z,35.533333
2023-06-10T01:55:16.406Z,35.266667
2023-06-10T02:00:18.668Z,35.600000
2023-06-10T02:05:22.537Z,36.533333
2023-06-10T02:10:23.816Z,36.071429
2023-06-10T02:15:27.067Z,36.733333
2023-06-10T02:20:29.388Z,37.866667
2023-06-10T02:25:32.013Z,39.200000
2023-06-10T02:30:34.550Z,40.200000
2023-06-10T02:35:16.635Z,40.933333
2023-06-10T02:40:18.947Z,41.933333
2023-06-10T02:45:21.404Z,42.600000
2023-06-10T02:50:23.975Z,43.285714
2023-06-10T02:55:26.751Z,44.466667
2023-06-10T03:00:29.542Z,45.933333
2023-06-10T03:05:32.202Z,47.066667
2023-06-10T03:10:34.762Z,48.133333
2023-06-10T03:15:16.901Z,50.200000
2023-06-10T03:20:19.792Z,51.266667
2023-06-10T03:25:22.392Z,51.928571
2023-06-10T03:30:24.872Z,52.466667
2023-06-10T03:35:28.393Z,51.600000
2023-06-10T03:40:30.838Z,51.000000
2023-06-10T03:45:33.646Z,52.000000
2023-06-10T03:50:16.322Z,53.466667
2023-06-10T03:55:19.869Z,53.533333
2023-06-10T04:00:22.320Z,53.071429
2023-06-10T04:05:25.036Z,53.400000
2023-06-10T04:10:27.836Z,53.933333
2023-06-10T04:15:29.934Z,54.000000
2023-06-10T04:20:32.468Z,54.666667
2023-06-10T04:25:34.686Z,56.800000
2023-06-10T04:30:16.674Z,57.066667
2023-06-10T04:35:20.002Z,57.000000
2023-06-10T04:40:22.545Z,57.000000
2023-06-10T04:45:25.207Z,57.266667
2023-06-10T04:50:27.932Z,58.000000
2023-06-10T04:55:30.308Z,58.000000
2023-06-10T05:00:32.975Z,58.200000
2023-06-10T05:05:35.610Z,58.066667
2023-06-10T05:10:18.049Z,58.133333
2023-06-10T05:15:21.321Z,58.066667
2023-06-10T05:20:23.502Z,58.071429
2023-06-10T05:25:26.986Z,58.000000
2023-06-10T05:30:29.298Z,58.000000
2023-06-10T05:35:31.034Z,57.933333
2023-06-10T05:40:33.356Z,57.000000
2023-06-10T05:45:35.987Z,57.066667
2023-06-10T05:50:17.979Z,56.933333
2023-06-10T05:55:20.267Z,55.466667
2023-06-10T06:00:22.355Z,55.000000
2023-06-10T06:05:25.436Z,54.666667
2023-06-10T06:10:28.209Z,54.266667
2023-06-10T06:15:30.063Z,53.266667
2023-06-10T06:20:32.547Z,53.933333
2023-06-10T06:25:34.586Z,55.000000
2023-06-10T06:30:16.906Z,56.600000
2023-06-10T06:35:19.449Z,57.866667
2023-06-10T06:40:21.937Z,59.000000
2023-06-10T06:45:25.332Z,60.071429
2023-06-10T06:50:27.931Z,60.066667
2023-06-10T06:55:30.515Z,59.800000
2023-06-10T07:00:32.471Z,59.000000
2023-06-10T07:05:35.344Z,59.866667
2023-06-10T07:10:17.486Z,60.133333
2023-06-10T07:15:20.377Z,61.400000
2023-06-10T07:20:22.595Z,62.928571
2023-06-10T07:25:25.511Z,64.000000
2023-06-10T07:30:28.089Z,64.000000
2023-06-10T07:35:30.878Z,64.000000
2023-06-10T07:40:35.347Z,64.000000
2023-06-10T07:45:16.105Z,63.400000
2023-06-10T07:50:18.332Z,63.933333
2023-06-10T07:55:20.746Z,64.000000
2023-06-10T08:00:23.549Z,64.000000
2023-06-10T08:05:26.229Z,64.266667
2023-06-10T08:10:28.426Z,64.133333
2023-06-10T08:15:31.121Z,63.533333
2023-06-10T08:20:33.463Z,63.000000
2023-06-10T08:25:36.236Z,63.000000
2023-06-10T08:30:18.104Z,62.533333
2023-06-10T08:35:21.587Z,61.800000
2023-06-10T08:40:23.047Z,62.000000
2023-06-10T08:45:25.222Z,62.000000
2023-06-10T08:50:27.974Z,61.266667
2023-06-10T08:55:32.346Z,61.800000
2023-06-10T09:00:32.869Z,63.000000
2023-06-10T09:05:35.419Z,63.066667
2023-06-10T09:10:18.344Z,64.200000
2023-06-10T09:15:21.274Z,65.133333
2023-06-10T09:20:25.524Z,66.071429
2023-06-10T09:25:27.366Z,67.000000
2023-06-10T09:30:30.191Z,67.000000
2023-06-10T09:35:33.036Z,66.600000
2023-06-10T09:40:16.446Z,66.200000
2023-06-10T09:45:18.272Z,66.933333
2023-06-10T09:50:22.343Z,67.000000
2023-06-10T09:55:23.886Z,66.714286
2023-06-10T10:00:27.137Z,66.000000
2023-06-10T10:05:31.839Z,66.000000
2023-06-10T10:10:34.485Z,66.800000
2023-06-10T10:15:16.558Z,68.600000
2023-06-10T10:20:21.465Z,68.866667
2023-06-10T10:25:23.780Z,68.214286
2023-06-10T10:30:26.904Z,69.000000
2023-06-10T10:35:29.500Z,69.600000
2023-06-10T10:40:32.412Z,70.000000
2023-06-10T10:45:35.419Z,70.533333
2023-06-10T10:50:18.639Z,71.000000
2023-06-10T10:55:21.719Z,71.000000
2023-06-10T11:00:24.673Z,71.000000
2023-06-10T11:05:29.978Z,71.000000
2023-06-10T11:10:32.902Z,71.000000
2023-06-10T11:15:16.078Z,70.200000
2023-06-10T11:20:19.118Z,70.466667
2023-06-10T11:25:21.070Z,70.466667
2023-06-10T11:30:25.898Z,71.000000
2023-06-10T11:35:28.265Z,71.266667
2023-06-10T11:40:32.198Z,71.866667
2023-06-10T11:45:22.108Z,72.000000
2023-06-10T11:50:24.249Z,72.000000
2023-06-10T11:55:27.945Z,72.000000
2023-06-10T12:00:31.471Z,72.000000
2023-06-10T12:05:34.244Z,71.600000
2023-06-10T12:10:27.169Z,71.000000
2023-06-10T12:15:19.857Z,70.266667
2023-06-10T12:20:22.776Z,70.000000
2023-06-10T12:25:26.727Z,70.000000
2023-06-10T12:30:28.540Z,70.000000
2023-06-10T12:35:31.355Z,70.133333
2023-06-10T12:40:34.889Z,70.066667
2023-06-10T12:45:17.093Z,69.000000
2023-06-10T12:50:19.821Z,68.800000
2023-06-10T12:55:23.710Z,68.214286
2023-06-10T13:00:25.950Z,68.800000
2023-06-10T13:05:28.787Z,69.000000
2023-06-10T13:10:34.510Z,68.466667
2023-06-10T13:15:16.889Z,71.133333
2023-06-10T13:20:19.896Z,73.000000
2023-06-10T13:25:25.545Z,72.642857
2023-06-10T13:30:28.038Z,71.800000
2023-06-10T13:35:28.867Z,71.000000
2023-06-10T13:40:32.752Z,68.400000
2023-06-10T13:45:35.542Z,63.200000
2023-06-10T13:50:18.266Z,62.066667
2023-06-10T13:55:22.596Z,61.466667
2023-06-10T14:00:25.355Z,60.357143
2023-06-10T14:05:29.607Z,60.866667
2023-06-10T14:10:31.150Z,59.933333
2023-06-10T14:15:34.540Z,60.200000
2023-06-10T14:20:16.902Z,59.800000
2023-06-10T14:25:21.269Z,59.933333
2023-06-10T14:30:27.357Z,60.214286
2023-06-10T14:35:30.391Z,59.400000
2023-06-10T14:40:33.749Z,59.400000
2023-06-10T14:45:17.110Z,59.466667
2023-06-10T14:50:19.277Z,59.066667
2023-06-10T14:55:23.156Z,57.357143
2023-06-10T15:00:26.878Z,58.200000
2023-06-10T15:05:31.065Z,57.933333
2023-06-10T15:10:33.415Z,56.533333
2023-06-10T15:15:16.293Z,55.466667
2023-06-10T15:20:20.614Z,54.866667
2023-06-10T15:25:30.780Z,54.000000
2023-06-10T15:30:25.780Z,52.533333
2023-06-10T15:35:29.339Z,52.533333
2023-06-10T15:40:32.660Z,52.866667
2023-06-10T15:45:36.157Z,52.266667
2023-06-10T15:50:19.680Z,52.800000
2023-06-10T15:55:23.467Z,52.357143
2023-06-10T16:00:24.910Z,52.266667
2023-06-10T16:05:28.030Z,52.333333
2023-06-10T16:10:31.282Z,51.866667
2023-06-10T16:15:34.147Z,52.200000
2023-06-10T16:20:17.438Z,53.400000
2023-06-10T16:25:20.009Z,52.400000
2023-06-10T16:30:22.822Z,51.214286
2023-06-10T16:35:25.713Z,51.400000
2023-06-10T16:40:29.110Z,53.000000
2023-06-10T16:45:32.008Z,52.000000
2023-06-10T16:50:35.458Z,50.800000
2023-06-10T16:55:18.710Z,49.333333
2023-06-10T17:00:22.114Z,49.266667
2023-06-10T17:05:24.445Z,51.642857
2023-06-10T17:10:27.457Z,51.400000
2023-06-10T17:15:30.763Z,50.533333
2023-06-10T17:20:34.095Z,51.533333
2023-06-10T17:25:17.486Z,50.800000
2023-06-10T17:30:23.294Z,50.533333
2023-06-10T17:35:24.255Z,49.857143
2023-06-10T17:40:26.866Z,49.066667
2023-06-10T17:45:29.743Z,49.733333
2023-06-10T17:50:32.599Z,47.928571
2023-06-10T17:55:36.214Z,47.600000
2023-06-10T18:00:17.615Z,49.266667
2023-06-10T18:05:20.615Z,50.333333
2023-06-10T18:10:24.250Z,50.071429
2023-06-10T18:15:26.834Z,48.200000
2023-06-10T18:20:30.184Z,49.466667
2023-06-10T18:25:33.619Z,49.000000
2023-06-10T18:30:16.265Z,47.866667
2023-06-10T18:35:21.645Z,48.466667
2023-06-10T18:40:23.698Z,48.714286
2023-06-10T18:45:26.623Z,47.333333
2023-06-10T18:50:30.935Z,46.533333
2023-06-10T18:55:33.517Z,46.066667
2023-06-10T19:00:16.866Z,45.066667
2023-06-10T19:05:20.132Z,45.133333
2023-06-10T19:10:23.026Z,45.428571
2023-06-10T19:15:27.380Z,45.066667
2023-06-10T19:20:29.958Z,42.733333
2023-06-10T19:25:32.664Z,41.133333
2023-06-10T19:30:16.405Z,41.666667
2023-06-10T19:35:19.754Z,40.533333
2023-06-10T19:40:23.898Z,39.785714
2023-06-10T19:45:26.962Z,39.200000
2023-06-10T19:50:29.963Z,39.800000
2023-06-10T19:55:34.789Z,39.333333
2023-06-10T20:00:16.716Z,38.333333
2023-06-10T20:05:19.522Z,37.000000
2023-06-10T20:10:23.710Z,36.714286
2023-06-10T20:15:25.943Z,37.000000
2023-06-10T20:20:29.904Z,38.200000
2023-06-10T20:25:32.546Z,37.333333
2023-06-10T20:30:35.903Z,38.133333
2023-06-10T20:35:17.142Z,38.600000
2023-06-10T20:40:19.074Z,38.466667
2023-06-10T20:45:21.748Z,37.466667
2023-06-10T20:50:24.943Z,37.357143
2023-06-10T20:55:27.609Z,37.000000
2023-06-10T21:00:30.907Z,35.600000
2023-06-10T21:05:33.105Z,35.400000
2023-06-10T21:10:36.025Z,34.466667
2023-06-10T21:15:17.848Z,33.866667
2023-06-10T21:20:20.054Z,34.466667
2023-06-10T21:25:22.400Z,34.285714
2023-06-10T21:30:24.295Z,34.200000
2023-06-10T21:35:26.509Z,34.733333
2023-06-10T21:40:28.723Z,36.066667
2023-06-10T21:45:30.928Z,36.066667
2023-06-10T21:50:33.600Z,35.800000
2023-06-10T21:55:35.866Z,36.466667
2023-06-10T22:00:17.368Z,37.200000
2023-06-10T22:05:20.839Z,36.066667
2023-06-10T22:10:21.934Z,36.466667
2023-06-10T22:15:24.002Z,35.214286
2023-06-10T22:20:26.417Z,35.066667
2023-06-10T22:25:28.724Z,34.200000
2023-06-10T22:30:30.683Z,34.857143
2023-06-10T22:35:34.382Z,34.500000
2023-06-10T22:40:35.441Z,35.466667
2023-06-10T22:45:17.327Z,34.666667
2023-06-10T22:50:19.364Z,34.800000
2023-06-10T22:55:22.258Z,33.714286
2023-06-10T23:00:24.755Z,33.266667
2023-06-10T23:05:27.260Z,32.733333
2023-06-10T23:10:29.641Z,34.133333
2023-06-10T23:15:31.575Z,34.000000
2023-06-10T23:20:34.061Z,32.933333
2023-06-10T23:25:35.737Z,32.600000
2023-06-10T23:30:17.635Z,31.933333
2023-06-10T23:35:19.875Z,33.066667
2023-06-10T23:40:22.058Z,33.214286
2023-06-10T23:45:24.086Z,34.266667
2023-06-10T23:50:26.318Z,33.733333
2023-06-10T23:55:28.818Z,33.200000
